Time;durP1;ratioP1;P1;durP2;ratioP2;P2;SDS_P1;SDS_P2;PMS_P1;PMS_P2;Temp;Humidity;BMP_temperature;BMP_pressure;BME280_temperature;BME280_humidity;BME280_pressure;Samples;Min_cycle;Max_cycle;Signal;HPM_P1;HPM_P2
2022/11/27 00:20:42;;;;;;;3.60;3.30;;;;;;;1.20;100.00;100694.53;1829646;75;27173;-70
2022/11/27 00:23:09;;;;;;;2.52;2.35;;;;;;;1.87;100.00;100697.86;1823886;76;21669;-70
2022/11/27 00:25:36;;;;;;;2.70;2.50;;;;;;;2.10;100.00;100682.50;1782191;76;21876;-70
2022/11/27 00:28:02;;;;;;;3.05;2.60;;;;;;;2.21;100.00;100659.23;1798333;76;21709;-68
2022/11/27 00:30:29;;;;;;;2.70;2.50;;;;;;;2.34;100.00;100649.38;1822695;76;21573;-69
2022/11/27 00:32:56;;;;;;;2.75;2.55;;;;;;;2.43;100.00;100644.69;1781997;77;21507;-70
2022/11/27 00:35:23;;;;;;;3.17;2.52;;;;;;;2.57;100.00;100638.71;1805917;77;21040;-68
2022/11/27 00:37:49;;;;;;;2.62;2.22;;;;;;;2.67;100.00;100636.16;1775710;78;21802;-68
2022/11/27 00:40:16;;;;;;;2.50;2.30;;;;;;;2.75;100.00;100631.03;1753465;78;21573;-69
2022/11/27 00:42:44;;;;;;;2.50;2.30;;;;;;;2.83;100.00;100631.92;1736568;80;21774;-68
2022/11/27 00:45:11;;;;;;;2.30;2.10;;;;;;;2.86;100.00;100625.45;1746758;80;21549;-68
2022/11/27 00:47:37;;;;;;;2.77;2.47;;;;;;;2.95;100.00;100628.50;1811720;76;21559;-68
2022/11/27 00:50:05;;;;;;;2.30;2.10;;;;;;;3.00;100.00;100629.39;1819620;77;21785;-68
2022/11/27 00:52:32;;;;;;;3.05;2.77;;;;;;;3.07;100.00;100627.67;1793444;77;21497;-70
2022/11/27 00:54:58;;;;;;;2.60;2.40;;;;;;;3.11;100.00;100612.11;1815718;77;21495;-70
2022/11/27 00:57:25;;;;;;;2.90;2.60;;;;;;;3.24;100.00;100618.62;1789113;76;21615;-70
2022/11/27 00:59:52;;;;;;;2.33;2.20;;;;;;;3.28;100.00;100612.60;1817026;76;21575;-70
2022/11/27 01:02:18;;;;;;;2.55;2.33;;;;;;;3.34;100.00;100619.10;1789644;77;22661;-69
2022/11/27 01:04:47;;;;;;;2.47;2.35;;;;;;;3.34;100.00;100619.10;1820026;77;21526;-68
2022/11/27 01:07:14;;;;;;;2.47;2.27;;;;;;;3.36;100.00;100607.41;1829187;76;21412;-69
2022/11/27 01:09:40;;;;;;;2.50;2.30;;;;;;;3.36;100.00;100612.17;1775329;77;21524;-67
2022/11/27 01:12:07;;;;;;;2.67;2.05;;;;;;;3.39;100.00;100606.99;1800437;77;21657;-69
2022/11/27 01:14:34;;;;;;;2.20;2.00;;;;;;;3.41;100.00;100614.77;1804030;77;21690;-70
2022/11/27 01:17:00;;;;;;;2.33;2.12;;;;;;;3.46;100.00;100612.61;1801672;77;21564;-68
2022/11/27 01:19:27;;;;;;;1.90;1.80;;;;;;;3.49;100.00;100611.33;1808283;76;20967;-68
2022/11/27 01:21:53;;;;;;;2.30;2.15;;;;;;;3.45;100.00;100608.30;1801957;76;21564;-70
2022/11/27 01:24:20;;;;;;;2.35;2.15;;;;;;;3.42;100.00;100612.17;1777259;77;21428;-70
2022/11/27 01:26:47;;;;;;;2.62;2.33;;;;;;;3.42;100.00;100604.38;1768659;78;21898;-68
2022/11/27 01:29:13;;;;;;;2.33;2.12;;;;;;;3.44;100.00;100606.98;1770054;76;21689;-70
2022/11/27 01:31:40;;;;;;;2.50;2.30;;;;;;;3.46;100.00;100608.71;1804532;76;21549;-68
2022/11/27 01:34:10;;;;;;;2.02;1.92;;;;;;;3.49;100.00;100606.13;1796150;77;21575;-70
2022/11/27 01:36:36;;;;;;;2.72;2.37;;;;;;;3.49;100.00;100615.23;1805975;76;20944;-68
2022/11/27 01:39:03;;;;;;;2.60;2.40;;;;;;;3.55;100.00;100610.47;1822920;76;21797;-70
2022/11/27 01:41:35;;;;;;;2.40;2.20;;;;;;;3.55;100.00;100610.47;1813488;77;21487;-68
2022/11/27 01:44:25;;;;;;;3.62;2.22;;;;;;;3.56;100.00;100611.33;1816027;76;21498;-67
2022/11/27 01:47:06;;;;;;;3.77;2.70;;;;;;;3.54;100.00;100607.86;1778820;76;20992;-70
2022/11/27 01:49:45;;;;;;;3.02;2.42;;;;;;;3.54;100.00;100607.86;1808463;76;21596;-67
2022/11/27 01:52:25;;;;;;;2.98;2.50;;;;;;;3.48;100.00;100605.71;1824939;77;21746;-68
2022/11/27 01:55:06;;;;;;;2.52;1.90;;;;;;;3.46;100.00;100605.25;1789828;77;21126;-69
2022/11/27 01:57:37;;;;;;;2.22;2.12;;;;;;;3.49;100.00;100613.07;1806556;77;21578;-69
2022/11/27 02:00:06;;;;;;;3.10;2.50;;;;;;;3.49;100.00;100607.42;1790049;77;21461;-67
2022/11/27 02:02:35;;;;;;;2.45;2.22;;;;;;;3.48;100.00;100611.31;1791362;76;21507;-70
2022/11/27 02:05:02;;;;;;;2.60;2.37;;;;;;;3.48;100.00;100608.31;1821165;76;21921;-69
2022/11/27 02:07:29;;;;;;;2.40;2.20;;;;;;;3.50;100.00;100607.88;1833668;75;21645;-68
2022/11/27 02:09:56;;;;;;;2.60;2.40;;;;;;;3.51;100.00;100600.94;1786556;77;21612;-68
2022/11/27 02:12:41;;;;;;;2.40;2.20;;;;;;;3.45;100.00;100601.80;1778720;77;21534;-70
2022/11/27 02:15:31;;;;;;;2.20;2.00;;;;;;;3.44;100.00;100600.48;1813845;77;21450;-67
2022/11/27 02:18:06;;;;;;;2.42;2.22;;;;;;;3.42;100.00;100604.82;1799330;77;23386;-69
2022/11/27 02:21:08;;;;;;;2.33;2.12;;;;;;;3.40;100.00;100603.51;1790795;77;21395;-69
2022/11/27 02:24:04;;;;;;;2.55;2.08;;;;;;;3.39;100.00;100607.40;1813611;77;21404;-66
2022/11/27 02:27:15;;;;;;;2.47;2.27;;;;;;;3.34;100.00;100611.75;1804499;76;20981;-69
2022/11/27 06:59:05;;;;;;;5.47;4.55;;;;;;;2.16;100.00;100746.98;1799195;76;21693;-61
2022/11/27 07:01:33;;;;;;;4.90;4.42;;;;;;;2.45;100.00;100713.47;1821627;76;21454;-64
2022/11/27 07:04:00;;;;;;;6.75;4.55;;;;;;;2.56;100.00;100699.27;1828397;76;21562;-63
2022/11/27 07:06:27;;;;;;;4.60;4.20;;;;;;;2.68;100.00;100694.17;1822046;76;21825;-63
2022/11/27 07:08:55;;;;;;;4.55;3.83;;;;;;;2.80;100.00;100686.44;1821413;77;21163;-61
2022/11/27 07:11:25;;;;;;;5.22;4.53;;;;;;;2.89;100.00;100685.19;1820741;77;26742;-61
2022/11/27 07:13:54;;;;;;;4.60;4.20;;;;;;;2.97;100.00;100683.93;1824940;76;22043;-61
2022/11/27 07:16:21;;;;;;;6.00;4.60;;;;;;;3.09;100.00;100682.70;1825293;76;21431;-61
2022/11/27 07:18:51;;;;;;;5.03;4.53;;;;;;;3.18;100.00;100677.95;1788762;77;21052;-60
2022/11/27 07:21:19;;;;;;;5.33;4.78;;;;;;;3.24;100.00;100680.60;1805321;77;21582;-63
2022/11/27 07:23:45;;;;;;;4.50;3.98;;;;;;;3.28;100.00;100680.19;1834149;76;21486;-64
2022/11/27 07:26:16;;;;;;;6.92;4.25;;;;;;;3.36;100.00;100677.16;1797102;77;22238;-64
2022/11/27 07:28:43;;;;;;;4.72;4.28;;;;;;;3.42;100.00;100682.38;1824192;76;21604;-63
2022/11/27 07:31:15;;;;;;;6.25;4.90;;;;;;;3.46;100.00;100684.55;1810754;76;21534;-64
2022/11/27 07:33:42;;;;;;;6.15;5.17;;;;;;;3.50;100.00;100684.59;1826305;77;21404;-64
2022/11/27 07:36:21;;;;;;;5.33;4.83;;;;;;;3.55;100.00;100681.13;1801564;77;21424;-65
2022/11/27 07:38:48;;;;;;;5.78;5.20;;;;;;;3.62;100.00;100676.38;1826574;75;21925;-65
2022/11/27 07:41:14;;;;;;;5.53;4.92;;;;;;;3.65;100.00;100669.42;1811192;76;21509;-61
2022/11/27 07:43:42;;;;;;;5.75;5.15;;;;;;;3.69;100.00;100674.20;1800095;77;21435;-61
2022/11/27 07:46:38;;;;;;;5.50;5.00;;;;;;;3.72;100.00;100670.31;1787496;78;28697;-61
2022/11/27 07:49:05;;;;;;;5.70;4.45;;;;;;;3.76;100.00;100670.75;1646618;85;21686;-61
2022/11/27 07:51:32;;;;;;;5.45;4.92;;;;;;;3.79;100.00;100672.06;1646716;85;22065;-62
2022/11/27 07:53:59;;;;;;;6.25;4.90;;;;;;;3.81;100.00;100678.14;1642317;85;21594;-62
2022/11/27 07:56:26;;;;;;;5.20;4.70;;;;;;;3.84;100.00;100678.56;1653152;84;21571;-61
2022/11/27 07:58:54;;;;;;;6.20;4.87;;;;;;;3.82;100.00;100673.34;1622795;86;21518;-61
2022/11/27 08:01:21;;;;;;;5.77;4.93;;;;;;;3.82;100.00;100674.65;1605036;86;21438;-68
2022/11/27 08:03:47;;;;;;;5.05;4.65;;;;;;;3.85;100.00;100672.06;1642736;85;21995;-65
2022/11/27 08:06:21;;;;;;;5.10;4.47;;;;;;;3.91;100.00;100673.80;1651324;84;21416;-63
2022/11/27 08:08:48;;;;;;;4.87;4.37;;;;;;;3.97;100.00;100672.94;1692634;82;21580;-64
2022/11/27 08:11:23;;;;;;;5.03;4.62;;;;;;;4.00;100.00;100674.26;1675142;83;21674;-65
2022/11/27 08:13:49;;;;;;;5.22;4.80;;;;;;;3.97;100.00;100672.94;1687302;82;21466;-69
2022/11/27 08:16:16;;;;;;;6.05;4.85;;;;;;;3.92;100.00;100673.36;1690277;82;21820;-69
2022/11/27 08:18:44;;;;;;;6.47;4.90;;;;;;;3.90;100.00;100674.69;1685952;82;21576;-69
2022/11/27 08:21:11;;;;;;;4.95;4.50;;;;;;;3.74;100.00;100685.49;1679083;83;21768;-70
2022/11/27 08:23:37;;;;;;;4.95;4.40;;;;;;;3.76;100.00;100683.76;1677291;83;21149;-70
2022/11/27 08:26:07;;;;;;;5.90;5.08;;;;;;;3.82;100.00;100684.20;1686562;83;21722;-69
2022/11/27 08:28:34;;;;;;;7.10;5.25;;;;;;;3.83;100.00;100685.51;1689637;82;21962;-68
2022/11/27 08:31:02;;;;;;;5.15;4.62;;;;;;;3.83;100.00;100681.61;1692131;83;21569;-68
2022/11/27 08:33:30;;;;;;;6.20;4.95;;;;;;;3.85;100.00;100681.61;1690524;82;21511;-67
2022/11/27 08:35:56;;;;;;;6.10;4.72;;;;;;;3.88;100.00;100690.70;1686206;82;21474;-68
2022/11/27 08:38:23;;;;;;;7.65;5.85;;;;;;;3.87;100.00;100689.84;1688343;83;21565;-67
2022/11/27 08:40:58;;;;;;;6.37;5.78;;;;;;;3.82;100.00;100700.67;1689309;82;21572;-67
2022/11/27 08:43:24;;;;;;;7.15;5.50;;;;;;;3.87;100.00;100697.65;1689359;83;21420;-69
2022/11/27 08:45:51;;;;;;;6.00;5.05;;;;;;;3.94;100.00;100689.84;1656205;83;21587;-68
2022/11/27 08:48:19;;;;;;;7.90;5.70;;;;;;;3.94;100.00;100688.54;1693020;82;21776;-69
2022/11/27 08:50:45;;;;;;;5.72;4.55;;;;;;;3.89;100.00;100686.81;1690442;83;27038;-67
2022/11/27 08:53:12;;;;;;;5.75;5.25;;;;;;;3.88;100.00;100688.99;1666568;83;21894;-69
2022/11/27 08:55:39;;;;;;;5.97;5.37;;;;;;;3.88;100.00;100685.50;1629530;86;21053;-67
2022/11/27 08:58:05;;;;;;;5.22;4.70;;;;;;;3.90;100.00;100682.05;1636020;85;21479;-69
2022/11/27 09:00:32;;;;;;;6.03;5.17;;;;;;;3.94;100.00;100682.92;1652118;83;21017;-68
2022/11/27 09:02:59;;;;;;;5.45;5.00;;;;;;;3.96;100.00;100685.53;1653504;84;21553;-69
2022/11/27 09:05:27;;;;;;;5.05;4.55;;;;;;;3.94;100.00;100685.53;1627954;86;21912;-69
2022/11/27 09:07:55;;;;;;;6.20;5.30;;;;;;;3.95;100.00;100686.39;1630552;85;21577;-69
2022/11/27 09:10:22;;;;;;;4.75;4.35;;;;;;;3.89;100.00;100679.00;1624313;86;21451;-69
2022/11/27 09:12:49;;;;;;;5.50;5.00;;;;;;;3.95;100.00;100682.05;1627460;86;21567;-67
2022/11/27 09:15:16;;;;;;;5.40;4.90;;;;;;;3.98;100.00;100681.20;1624089;86;21669;-69
2022/11/27 09:17:42;;;;;;;5.87;5.22;;;;;;;4.01;100.00;100684.67;1632593;86;21830;-64
2022/11/27 09:20:13;;;;;;;8.13;5.50;;;;;;;4.01;100.00;100677.27;1635437;86;21712;-64
2022/11/27 09:22:39;;;;;;;8.23;6.12;;;;;;;4.02;100.00;100679.89;1636653;85;21894;-63
2022/11/27 09:25:06;;;;;;;6.78;5.47;;;;;;;4.05;100.00;100678.59;1636127;85;21449;-64
2022/11/27 09:27:32;;;;;;;6.37;5.03;;;;;;;4.04;100.00;100681.19;1628195;85;21525;-64
2022/11/27 09:29:59;;;;;;;8.10;5.55;;;;;;;4.07;100.00;100683.81;1645663;84;21833;-64
2022/11/27 09:32:26;;;;;;;7.03;5.35;;;;;;;4.07;100.00;100673.40;1610297;86;21611;-67
2022/11/27 09:34:52;;;;;;;6.67;4.97;;;;;;;4.10;100.00;100679.89;1696601;83;21615;-67
2022/11/27 09:37:19;;;;;;;7.42;5.70;;;;;;;4.11;100.00;100684.23;1694160;82;21179;-65
2022/11/27 09:39:45;;;;;;;6.62;5.37;;;;;;;4.17;100.00;100679.02;1690061;82;21072;-65
2022/11/27 09:42:26;;;;;;;5.95;5.35;;;;;;;4.16;100.00;100677.72;1688229;82;21713;-64
2022/11/27 09:44:56;;;;;;;6.28;5.33;;;;;;;4.18;100.00;100674.27;1659323;83;21477;-68
2022/11/27 09:47:37;;;;;;;5.92;5.00;;;;;;;4.17;100.00;100676.86;1691188;83;21570;-67
2022/11/27 09:50:12;;;;;;;5.30;4.75;;;;;;;4.11;100.00;100682.94;1691470;83;21559;-66
2022/11/27 09:52:55;;;;;;;7.25;5.55;;;;;;;4.16;100.00;100673.81;1681570;83;21544;-66
2022/11/27 09:55:43;;;;;;;6.70;5.40;;;;;;;4.14;100.00;100676.41;1685842;83;21763;-63
2022/11/27 09:58:17;;;;;;;7.80;6.28;;;;;;;4.13;100.00;100679.90;1691340;82;21450;-66
2022/11/27 10:00:45;;;;;;;5.33;4.53;;;;;;;4.14;100.00;100676.85;1684382;83;21655;-64
2022/11/27 10:03:19;;;;;;;5.62;4.65;;;;;;;4.14;100.00;100674.25;1693984;82;21026;-65
2022/11/27 10:06:09;;;;;;;5.62;5.00;;;;;;;4.16;100.00;100670.77;1681485;83;21520;-66
2022/11/27 10:08:42;;;;;;;6.65;4.70;;;;;;;4.19;100.00;100669.48;1629928;83;22083;-66
2022/11/27 10:11:29;;;;;;;5.37;4.58;;;;;;;4.21;100.00;100669.48;1676155;82;21607;-63
2022/11/27 10:14:21;;;;;;;3.90;3.60;;;;;;;4.14;100.00;100658.19;1684201;83;21654;-65
2022/11/27 10:16:57;;;;;;;5.00;4.15;;;;;;;4.11;100.00;100664.72;1682510;82;21666;-64
2022/11/27 10:19:45;;;;;;;5.60;5.10;;;;;;;4.15;100.00;100662.55;1673644;82;21624;-65
2022/11/27 10:22:32;;;;;;;6.72;5.95;;;;;;;4.15;100.00;100664.28;1686944;83;21868;-62
2022/11/27 10:25:29;;;;;;;9.70;6.58;;;;;;;4.15;100.00;100655.17;1690811;82;21292;-65
2022/11/27 10:28:14;;;;;;;7.70;6.10;;;;;;;4.04;100.00;100661.23;1678946;83;21490;-67
2022/11/27 10:31:14;;;;;;;10.38;6.37;;;;;;;4.03;100.00;100659.52;1687003;82;21695;-65
2022/11/27 10:33:51;;;;;;;6.85;6.20;;;;;;;4.07;100.00;100660.39;1688929;82;21468;-66
2022/11/27 10:36:29;;;;;;;8.58;6.30;;;;;;;4.02;100.00;100649.95;1697569;81;21817;-66
2022/11/27 10:38:57;;;;;;;7.80;6.15;;;;;;;4.05;100.00;100650.37;1688162;82;21476;-65
2022/11/27 10:41:41;;;;;;;5.73;5.10;;;;;;;4.09;100.00;100654.74;1678622;83;21172;-66
2022/11/27 11:13:20;;;;;;;4.47;4.08;;;;;;;1.08;100.00;100692.67;1775635;78;23241;-66
2022/11/27 11:16:04;;;;;;;5.72;4.60;;;;;;;2.17;100.00;100693.81;1735746;80;21589;-66
2022/11/27 11:18:34;;;;;;;6.85;4.58;;;;;;;2.42;100.00;100674.09;1735424;80;21799;-65
2022/11/27 11:21:05;;;;;;;7.62;5.35;;;;;;;2.56;100.00;100665.52;1705984;83;21481;-65
2022/11/27 11:23:38;;;;;;;7.17;5.40;;;;;;;2.73;100.00;100662.59;1709348;81;21450;-65
2022/11/27 11:26:13;;;;;;;6.35;5.00;;;;;;;2.86;100.00;100657.92;1699337;83;21595;-65
2022/11/27 11:28:45;;;;;;;5.60;5.03;;;;;;;2.92;100.00;100646.69;1681594;83;21595;-65
2022/11/27 11:31:13;;;;;;;6.80;5.15;;;;;;;3.03;100.00;100645.01;1691382;83;21544;-67
2022/11/27 11:33:54;;;;;;;6.90;5.35;;;;;;;3.07;100.00;100644.16;1702860;81;21636;-67
2022/11/27 11:36:21;;;;;;;6.45;5.03;;;;;;;3.17;100.00;100640.29;1701228;81;21735;-68
2022/11/27 11:38:48;;;;;;;6.70;5.25;;;;;;;3.27;100.00;100642.04;1697812;83;22028;-68
2022/11/27 11:41:16;;;;;;;6.87;5.33;;;;;;;3.37;100.00;100646.42;1699877;82;21437;-66
2022/11/27 11:43:59;;;;;;;5.92;4.20;;;;;;;3.44;100.00;100642.09;1708476;82;21936;-67
2022/11/27 11:46:31;;;;;;;7.20;5.35;;;;;;;3.55;100.00;100643.42;1703508;82;21433;-68
2022/11/27 11:49:18;;;;;;;8.60;5.37;;;;;;;3.63;100.00;100639.08;1701813;82;21406;-68
2022/11/27 11:52:21;;;;;;;8.58;5.33;;;;;;;3.72;100.00;100636.50;1701082;82;21517;-68
2022/11/27 11:54:59;;;;;;;9.28;5.55;;;;;;;3.82;100.00;100638.23;1697473;82;21532;-66
2022/11/27 11:57:46;;;;;;;9.98;5.97;;;;;;;3.90;100.00;100637.81;1708071;82;21855;-66
2022/11/27 12:00:17;;;;;;;;;;;;;;;3.95;100.00;100630.44;1711615;82;21518;-66
2022/11/27 12:02:55;;;;;;;8.00;5.83;;;;;;;3.92;100.00;100633.03;1697667;82;20147;-67
2022/11/27 12:05:40;;;;;;;6.08;5.17;;;;;;;4.05;100.00;100637.37;1702412;82;21467;-67
2022/11/27 12:08:21;;;;;;;7.70;5.58;;;;;;;4.11;100.00;100641.30;1691510;82;21482;-68
2022/11/27 12:11:15;;;;;;;5.28;4.70;;;;;;;4.16;100.00;100631.72;1703664;82;21750;-68
2022/11/27 12:13:53;;;;;;;5.05;4.50;;;;;;;4.16;100.00;100635.62;1690523;82;21580;-68
2022/11/27 12:16:44;;;;;;;6.42;5.08;;;;;;;4.25;100.00;100633.02;1700274;82;21038;-69
2022/11/27 12:19:42;;;;;;;6.42;4.90;;;;;;;4.30;100.00;100635.63;1699315;82;22444;-69
2022/11/27 12:22:39;;;;;;;6.10;5.10;;;;;;;4.32;100.00;100633.03;1697050;82;21541;-66
2022/11/27 12:25:26;;;;;;;4.92;4.33;;;;;;;4.26;100.00;100630.00;1701751;82;21823;-66
2022/11/27 12:28:19;;;;;;;7.45;4.40;;;;;;;4.31;100.00;100633.89;1692434;82;21573;-67
2022/11/27 12:31:13;;;;;;;6.33;4.50;;;;;;;4.37;100.00;100626.95;1687316;83;21546;-65
2022/11/27 12:33:56;;;;;;;4.95;4.45;;;;;;;4.36;100.00;100627.80;1707648;82;21565;-66
2022/11/27 12:36:56;;;;;;;4.70;4.20;;;;;;;4.36;100.00;100633.45;1708358;82;21544;-66
2022/11/27 12:39:46;;;;;;;5.08;4.37;;;;;;;4.37;100.00;100631.27;1706747;82;21533;-66
2022/11/27 12:42:39;;;;;;;4.80;4.22;;;;;;;4.34;100.00;100632.59;1704397;82;21537;-67
2022/11/27 12:45:20;;;;;;;5.95;4.30;;;;;;;4.39;100.00;100634.73;1695161;82;21620;-67
2022/11/27 12:47:51;;;;;;;4.67;4.25;;;;;;;4.33;100.00;100639.95;1703878;82;21515;-68
2022/11/27 12:50:39;;;;;;;6.05;4.58;;;;;;;4.18;100.00;100636.52;1704263;82;21470;-67
2022/11/27 12:53:28;;;;;;;5.15;4.65;;;;;;;4.19;100.00;100633.48;1699535;82;21852;-69
2022/11/27 12:56:23;;;;;;;5.37;4.50;;;;;;;4.21;100.00;100633.03;1700364;82;21113;-66
2022/11/27 12:59:24;;;;;;;9.48;5.08;;;;;;;4.22;100.00;100642.16;1622677;86;21612;-67
2022/11/27 13:02:24;;;;;;;5.25;4.20;;;;;;;4.20;100.00;100638.69;1689083;82;21613;-66
2022/11/27 13:04:58;;;;;;;5.58;4.97;;;;;;;4.16;100.00;100647.34;1691097;82;21526;-66
2022/11/27 13:07:44;;;;;;;6.08;4.60;;;;;;;4.14;100.00;100637.37;1692736;82;21996;-66
2022/11/27 13:10:42;;;;;;;4.80;4.00;;;;;;;4.11;100.00;100641.30;1635600;82;21493;-66
2022/11/27 13:13:29;;;;;;;4.70;4.30;;;;;;;4.15;100.00;100652.58;1693587;82;21571;-66
2022/11/27 13:16:28;;;;;;;4.83;4.05;;;;;;;4.15;100.00;100648.22;1691326;82;21605;-67
2022/11/27 13:19:03;;;;;;;4.85;4.33;;;;;;;4.14;100.00;100649.08;1694316;82;21527;-66
2022/11/27 13:21:32;;;;;;;4.53;4.03;;;;;;;4.13;100.00;100647.80;1693480;82;21871;-63
2022/11/27 13:24:00;;;;;;;5.37;4.62;;;;;;;4.12;100.00;100654.72;1686850;82;21621;-65
2022/11/27 13:26:39;;;;;;;5.53;4.55;;;;;;;4.07;100.00;100644.77;1698021;82;21046;-66
2022/11/27 13:29:19;;;;;;;8.38;6.40;;;;;;;4.08;100.00;100646.48;1677185;82;21086;-66
2022/11/27 13:31:51;;;;;;;6.72;5.12;;;;;;;4.09;100.00;100645.19;1691731;82;21576;-65
2022/11/27 13:34:21;;;;;;;6.92;4.92;;;;;;;4.13;100.00;100644.76;1663115;83;22012;-65
2022/11/27 13:37:04;;;;;;;5.10;4.42;;;;;;;4.06;100.00;100647.78;1701367;81;21505;-67
2022/11/27 13:39:40;;;;;;;5.65;4.92;;;;;;;4.05;100.00;100646.47;1697990;83;21477;-72
2022/11/27 13:42:18;;;;;;;7.58;5.62;;;;;;;4.04;100.00;100641.71;1692789;82;21536;-67
2022/11/27 13:44:55;;;;;;;6.25;4.58;;;;;;;4.01;100.00;100644.34;1691408;82;21049;-67
2022/11/27 13:47:24;;;;;;;6.42;4.95;;;;;;;3.95;100.00;100648.66;1681468;82;21671;-64
2022/11/27 13:50:22;;;;;;;5.67;4.72;;;;;;;3.96;100.00;100649.97;1686970;82;21427;-63
2022/11/27 13:52:58;;;;;;;6.47;4.42;;;;;;;3.93;100.00;100651.25;1775418;78;21457;-64
2022/11/27 13:55:35;;;;;;;8.43;5.58;;;;;;;3.93;100.00;100654.30;1770962;78;21414;-65
2022/11/27 13:58:03;;;;;;;10.93;5.80;;;;;;;3.90;100.00;100665.14;1778548;78;21560;-65
2022/11/27 14:00:38;;;;;;;;;;;;;;;3.90;100.00;100661.23;1773770;78;22105;-62
2022/11/27 14:03:08;;;;;;;6.53;4.85;;;;;;;3.87;100.00;100665.56;1770015;78;20487;-64
2022/11/27 14:05:41;;;;;;;8.10;6.15;;;;;;;3.88;100.00;100662.08;1776477;78;20937;-64
2022/11/27 14:08:29;;;;;;;7.92;5.35;;;;;;;3.90;100.00;100661.23;1751824;78;21505;-64
2022/11/27 14:11:10;;;;;;;7.10;5.35;;;;;;;3.88;100.00;100665.58;1767273;78;21533;-63
2022/11/27 14:13:45;;;;;;;6.78;5.05;;;;;;;3.86;100.00;100659.50;1766243;78;21924;-64
2022/11/27 14:16:26;;;;;;;7.17;5.15;;;;;;;3.82;100.00;100660.34;1775942;78;21378;-66
2022/11/27 14:18:56;;;;;;;5.10;4.50;;;;;;;3.82;100.00;100659.04;1769105;78;21581;-63
2022/11/27 14:21:37;;;;;;;4.95;4.37;;;;;;;3.79;100.00;100660.36;1748368;78;21613;-66
2022/11/27 14:24:27;;;;;;;5.08;4.58;;;;;;;3.81;100.00;100666.43;1765787;78;21439;-63
2022/11/27 14:26:54;;;;;;;5.08;4.20;;;;;;;3.84;100.00;100668.16;1789383;78;21885;-66
2022/11/27 14:29:22;;;;;;;6.35;4.53;;;;;;;3.83;100.00;100671.20;1778367;78;21016;-70
2022/11/27 14:31:57;;;;;;;7.37;4.25;;;;;;;3.79;100.00;100665.56;1762013;78;21065;-67
2022/11/27 14:34:30;;;;;;;6.67;4.85;;;;;;;3.74;100.00;100668.58;1772154;78;21615;-68
2022/11/27 14:36:57;;;;;;;8.33;5.33;;;;;;;3.65;100.00;100665.96;1767552;78;21418;-68
2022/11/27 14:39:30;;;;;;;4.78;4.30;;;;;;;3.62;100.00;100663.38;1775392;78;21786;-70
2022/11/27 14:42:00;;;;;;;6.42;5.37;;;;;;;3.62;100.00;100669.44;1768703;78;21595;-70
2022/11/27 14:44:27;;;;;;;10.48;7.42;;;;;;;3.64;100.00;100669.45;1773993;78;21425;-71
2022/11/27 14:46:54;;;;;;;10.47;8.40;;;;;;;3.63;100.00;100663.35;1733864;80;21422;-71
2022/11/27 14:49:25;;;;;;;10.55;7.58;;;;;;;3.66;100.00;100662.06;1695768;82;21523;-71
2022/11/27 14:51:53;;;;;;;9.00;7.30;;;;;;;3.67;100.00;100665.12;1702069;82;21771;-72
2022/11/27 14:54:32;;;;;;;8.70;6.12;;;;;;;3.68;100.00;100659.03;1718196;82;21485;-69
2022/11/27 14:56:58;;;;;;;7.72;5.35;;;;;;;3.67;100.00;100660.33;1691853;81;21564;-72
2022/11/27 14:59:25;;;;;;;5.62;4.87;;;;;;;3.63;100.00;100663.35;1737903;81;21391;-73
2022/11/27 15:02:12;;;;;;;7.30;4.55;;;;;;;3.63;100.00;100671.59;1742680;80;21473;-73
2022/11/27 15:04:43;;;;;;;5.53;4.45;;;;;;;3.60;100.00;100667.27;1733787;81;21574;-72
2022/11/27 15:07:24;;;;;;;7.05;4.90;;;;;;;3.55;100.00;100670.28;1738600;80;21513;-71
2022/11/27 15:09:53;;;;;;;4.15;3.75;;;;;;;3.55;100.00;100668.13;1738572;80;21454;-72
2022/11/27 15:12:31;;;;;;;4.83;4.15;;;;;;;3.51;100.00;100677.64;1735119;80;21053;-71
2022/11/27 15:15:08;;;;;;;6.90;4.30;;;;;;;3.53;100.00;100678.95;1726990;81;21437;-71
2022/11/27 15:17:37;;;;;;;8.53;5.33;;;;;;;3.52;100.00;100678.06;1731871;80;21596;-73
2022/11/27 15:20:19;;;;;;;8.25;5.92;;;;;;;3.58;100.00;100675.91;1705528;82;21567;-70
2022/11/27 15:22:54;;;;;;;7.78;6.05;;;;;;;3.60;100.00;100672.47;1709667;82;21580;-72
2022/11/27 15:25:42;;;;;;;6.83;5.10;;;;;;;3.62;100.00;100680.28;1727052;81;21538;-72
2022/11/27 15:28:35;;;;;;;6.25;5.20;;;;;;;3.61;100.00;100673.33;1742617;80;21049;-70
2022/11/27 15:31:27;;;;;;;6.78;5.12;;;;;;;3.61;100.00;100671.59;1735306;81;21822;-70
2022/11/27 15:34:07;;;;;;;6.12;5.10;;;;;;;3.55;100.00;100672.88;1621613;81;21046;-71
2022/11/27 15:36:56;;;;;;;5.40;4.55;;;;;;;3.54;100.00;100678.93;1741157;80;21490;-71
2022/11/27 15:39:37;;;;;;;5.37;4.20;;;;;;;3.52;100.00;100665.06;1731459;81;21628;-71
2022/11/27 15:42:08;;;;;;;5.00;4.45;;;;;;;3.49;100.00;100667.67;1743474;80;21084;-71
2022/11/27 15:44:34;;;;;;;5.80;4.80;;;;;;;3.50;100.00;100670.70;1732652;81;21806;-70
2022/11/27 15:47:03;;;;;;;7.37;4.65;;;;;;;3.51;100.00;100669.84;1744741;80;21525;-71
2022/11/27 15:49:29;;;;;;;;;;;;;;;3.49;100.00;100669.84;1737314;80;21542;-71
2022/11/27 15:51:56;;;;;;;7.10;4.83;;;;;;;3.45;100.00;100668.09;1745780;80;20454;-70
2022/11/27 15:54:24;;;;;;;5.67;4.50;;;;;;;3.43;100.00;100664.63;1746461;80;21434;-70
2022/11/27 15:56:50;;;;;;;5.65;4.65;;;;;;;3.41;100.00;100673.27;1739114;80;21877;-70
2022/11/27 15:59:19;;;;;;;9.10;5.30;;;;;;;3.41;100.00;100675.45;1742176;80;21555;-71
2022/11/27 16:01:46;;;;;;;10.93;7.12;;;;;;;3.43;100.00;100675.03;1736192;80;21627;-71
2022/11/27 16:04:13;;;;;;;11.68;6.47;;;;;;;3.42;100.00;100671.98;1743238;80;21552;-72
2022/11/27 16:06:40;;;;;;;8.18;5.50;;;;;;;3.42;100.00;100675.88;1744312;80;21584;-74
2022/11/27 16:09:07;;;;;;;9.80;5.25;;;;;;;3.39;100.00;100669.39;1748046;80;21784;-73
2022/11/27 16:11:34;;;;;;;7.83;4.45;;;;;;;3.40;100.00;100672.41;1742755;80;21529;-72
2022/11/27 16:14:01;;;;;;;6.35;4.08;;;;;;;3.38;100.00;100674.14;1733756;80;21033;-73
2022/11/27 16:16:28;;;;;;;6.67;4.00;;;;;;;3.38;100.00;100676.73;1728481;80;21606;-73
2022/11/27 16:18:59;;;;;;;6.80;4.62;;;;;;;3.35;100.00;100671.52;1742526;80;21425;-73
2022/11/27 16:21:28;;;;;;;6.67;3.87;;;;;;;3.35;100.00;100675.86;1696171;81;22143;-72
2022/11/27 16:23:57;;;;;;;5.75;3.92;;;;;;;3.29;100.00;100671.06;1728693;80;21421;-71
2022/11/27 16:26:23;;;;;;;4.83;4.08;;;;;;;3.40;100.00;100686.70;1731447;80;21438;-71
2022/11/27 16:28:50;;;;;;;5.00;4.00;;;;;;;3.40;100.00;100686.70;1740448;80;20994;-71
2022/11/27 16:31:17;;;;;;;5.83;4.50;;;;;;;3.42;100.00;100691.48;1735840;80;21647;-72
2022/11/27 16:33:44;;;;;;;5.42;3.87;;;;;;;3.44;100.00;100690.19;1740215;80;23591;-71
2022/11/27 16:36:16;;;;;;;5.20;3.98;;;;;;;3.42;100.00;100695.38;1733234;80;21510;-72
2022/11/27 16:38:43;;;;;;;7.15;4.15;;;;;;;3.35;100.00;100690.16;1735750;80;21029;-71
2022/11/27 16:41:13;;;;;;;6.45;4.60;;;;;;;3.37;100.00;100684.12;1712933;81;21536;-69
2022/11/27 16:43:44;;;;;;;6.65;4.08;;;;;;;3.35;100.00;100687.11;1728289;80;21574;-70
2022/11/27 16:46:18;;;;;;;6.55;4.30;;;;;;;3.38;100.00;100687.14;1724749;80;21878;-71
2022/11/27 16:48:46;;;;;;;5.75;4.30;;;;;;;3.39;100.00;100691.48;1739189;81;21127;-72
2022/11/27 16:51:18;;;;;;;;;;;;;;;3.41;100.00;100690.16;1718070;82;21494;-74
2022/11/27 16:53:48;;;;;;;5.30;3.62;;;;;;;3.40;100.00;100687.15;1722890;80;20658;-72
2022/11/27 16:56:16;;;;;;;4.92;3.50;;;;;;;3.42;100.00;100692.77;1717735;81;21069;-72
2022/11/27 16:58:44;;;;;;;5.85;4.12;;;;;;;3.45;100.00;100690.64;1729606;80;21787;-72
2022/11/27 17:01:16;;;;;;;6.28;3.90;;;;;;;3.46;100.00;100689.75;1730808;80;21575;-72
2022/11/27 17:03:44;;;;;;;5.15;4.08;;;;;;;3.45;100.00;100694.53;1734566;80;21068;-71
2022/11/27 17:06:14;;;;;;;4.90;3.58;;;;;;;3.44;100.00;100693.64;1707889;82;21503;-73
2022/11/27 17:08:42;;;;;;;5.67;3.92;;;;;;;3.44;100.00;100696.25;1733014;80;21468;-73
2022/11/27 17:11:21;;;;;;;5.58;3.37;;;;;;;3.46;100.00;100689.75;1739679;80;21880;-73
2022/11/27 17:13:48;;;;;;;6.53;4.05;;;;;;;3.46;100.00;100688.45;1726225;80;21505;-73
2022/11/27 17:16:16;;;;;;;3.60;3.30;;;;;;;3.48;100.00;100688.92;1735007;80;21001;-72